QTR129 OKKK-OTHH
Flight info
| Callsign | QTR129 |
|---|---|
| Flight time | 1h 6m |
| Altitude | 27000 |
| Route | BOXIK B416 IMDOX P975 LONOS L703 HAYYA |
| Aircraft | A388/J-SADE2E3FGHIJ3J4J5M1RWXY/LB1D1 |
Departure
| Time | 2026-05-08 22:02 |
|---|---|
| Airport | Kuwait International Airport (OKKK) |
Arrival
| Time | 2026-05-08 23:08 |
|---|---|
| Airport | Hamad International Airport (OTHH) |
| Time | Latitude | Longitude | Altitude | Speed | Heading |
|---|---|---|---|---|---|
| 2026-05-08 21:21 | 29.23852 | 47.96835 | 178 ft | 0 kts | 338° |
| 2026-05-08 21:41 | 29.23839 | 47.96846 | 177 ft | 0 kts | 15° |
| 2026-05-08 21:42 | 29.23840 | 47.96847 | 177 ft | 0 kts | 16° |
| 2026-05-08 21:42 | 29.23831 | 47.96843 | 177 ft | 3 kts | 13° |
| 2026-05-08 21:42 | 29.23810 | 47.96845 | 177 ft | 0 kts | 346° |
| 2026-05-08 21:43 | 29.23797 | 47.96853 | 177 ft | 3 kts | 330° |
| 2026-05-08 21:43 | 29.23768 | 47.96875 | 177 ft | 5 kts | 323° |
| 2026-05-08 21:43 | 29.23751 | 47.96905 | 176 ft | 5 kts | 276° |
| 2026-05-08 21:43 | 29.23756 | 47.96923 | 176 ft | 0 kts | 244° |
| 2026-05-08 21:50 | 29.23744 | 47.96894 | 177 ft | 7 kts | 244° |
| 2026-05-08 21:51 | 29.23713 | 47.96819 | 180 ft | 13 kts | 244° |
| 2026-05-08 21:51 | 29.23666 | 47.96712 | 199 ft | 17 kts | 245° |
| 2026-05-08 21:51 | 29.23602 | 47.96650 | 190 ft | 14 kts | 172° |
| 2026-05-08 21:51 | 29.23493 | 47.96699 | 202 ft | 21 kts | 153° |
| 2026-05-08 21:52 | 29.23339 | 47.96781 | 205 ft | 28 kts | 154° |
| 2026-05-08 21:52 | 29.23200 | 47.96856 | 194 ft | 7 kts | 162° |
| 2026-05-08 21:52 | 29.23146 | 47.96844 | 192 ft | 8 kts | 237° |
| 2026-05-08 21:52 | 29.23109 | 47.96757 | 209 ft | 16 kts | 246° |
| 2026-05-08 21:53 | 29.23053 | 47.96606 | 192 ft | 25 kts | 247° |
| 2026-05-08 21:53 | 29.22970 | 47.96486 | 188 ft | 13 kts | 179° |
| 2026-05-08 21:53 | 29.22854 | 47.96542 | 204 ft | 23 kts | 154° |
| 2026-05-08 21:53 | 29.22709 | 47.96574 | 187 ft | 22 kts | 226° |
| 2026-05-08 21:54 | 29.22639 | 47.96421 | 181 ft | 29 kts | 245° |
| 2026-05-08 21:54 | 29.22633 | 47.96407 | 180 ft | 29 kts | 245° |
| 2026-05-08 21:54 | 29.22542 | 47.96180 | 170 ft | 33 kts | 245° |
| 2026-05-08 21:55 | 29.22442 | 47.95936 | 165 ft | 34 kts | 245° |
| 2026-05-08 21:55 | 29.22344 | 47.95699 | 172 ft | 31 kts | 244° |
| 2026-05-08 21:55 | 29.22252 | 47.95478 | 176 ft | 30 kts | 244° |
| 2026-05-08 21:56 | 29.22079 | 47.95055 | 186 ft | 28 kts | 245° |
| 2026-05-08 21:56 | 29.21966 | 47.94902 | 189 ft | 20 kts | 173° |
| 2026-05-08 21:56 | 29.21844 | 47.94968 | 198 ft | 20 kts | 157° |
| 2026-05-08 21:56 | 29.21701 | 47.95040 | 201 ft | 25 kts | 155° |
| 2026-05-08 21:57 | 29.21534 | 47.95129 | 197 ft | 28 kts | 155° |
| 2026-05-08 21:57 | 29.21343 | 47.95229 | 196 ft | 32 kts | 155° |
| 2026-05-08 21:57 | 29.21134 | 47.95339 | 201 ft | 34 kts | 155° |
| 2026-05-08 21:57 | 29.20923 | 47.95450 | 205 ft | 34 kts | 153° |
| 2026-05-08 21:58 | 29.20708 | 47.95568 | 202 ft | 35 kts | 155° |
| 2026-05-08 21:58 | 29.20480 | 47.95686 | 195 ft | 37 kts | 155° |
| 2026-05-08 21:58 | 29.20240 | 47.95813 | 184 ft | 39 kts | 155° |
| 2026-05-08 21:58 | 29.19998 | 47.95942 | 200 ft | 38 kts | 155° |
| 2026-05-08 21:59 | 29.19759 | 47.96069 | 204 ft | 37 kts | 155° |
| 2026-05-08 21:59 | 29.19519 | 47.96198 | 195 ft | 38 kts | 155° |
| 2026-05-08 21:59 | 29.19286 | 47.96322 | 202 ft | 32 kts | 155° |
| 2026-05-08 21:59 | 29.19143 | 47.96359 | 188 ft | 8 kts | 221° |
| 2026-05-08 22:00 | 29.19122 | 47.96321 | 188 ft | 7 kts | 252° |
| 2026-05-08 22:00 | 29.19115 | 47.96247 | 197 ft | 11 kts | 276° |
| 2026-05-08 22:00 | 29.19138 | 47.96160 | 185 ft | 11 kts | 308° |
| 2026-05-08 22:00 | 29.19202 | 47.96116 | 196 ft | 11 kts | 340° |
| 2026-05-08 22:01 | 29.19237 | 47.96099 | 201 ft | 0 kts | 335° |
| 2026-05-08 22:01 | 29.19257 | 47.96088 | 203 ft | 14 kts | 335° |
| 2026-05-08 22:01 | 29.19633 | 47.95893 | 205 ft | 104 kts | 335° |
| 2026-05-08 22:01 | 29.20491 | 47.95431 | 208 ft | 161 kts | 336° |
| 2026-05-08 22:02 | 29.21524 | 47.94856 | 737 ft | 165 kts | 335° |
| 2026-05-08 22:02 | 29.22560 | 47.94245 | 1348 ft | 168 kts | 334° |
| 2026-05-08 22:02 | 29.23610 | 47.93620 | 1935 ft | 174 kts | 335° |
| 2026-05-08 22:02 | 29.24723 | 47.92899 | 2180 ft | 194 kts | 337° |
| 2026-05-08 22:03 | 29.26074 | 47.92485 | 2312 ft | 212 kts | 358° |
| 2026-05-08 22:03 | 29.27587 | 47.92887 | 2521 ft | 239 kts | 27° |
| 2026-05-08 22:03 | 29.28830 | 47.94254 | 2977 ft | 259 kts | 56° |
| 2026-05-08 22:03 | 29.29382 | 47.96247 | 3564 ft | 270 kts | 84° |
| 2026-05-08 22:04 | 29.29068 | 47.98407 | 4271 ft | 281 kts | 113° |
| 2026-05-08 22:04 | 29.28013 | 48.00301 | 5055 ft | 283 kts | 131° |
| 2026-05-08 22:04 | 29.26706 | 48.02019 | 5781 ft | 291 kts | 134° |
| 2026-05-08 22:04 | 29.25384 | 48.03815 | 6440 ft | 301 kts | 131° |
| 2026-05-08 22:05 | 29.24120 | 48.05718 | 7292 ft | 299 kts | 129° |
| 2026-05-08 22:05 | 29.22928 | 48.07641 | 8102 ft | 301 kts | 127° |
| 2026-05-08 22:05 | 29.21731 | 48.09645 | 8953 ft | 301 kts | 126° |
| 2026-05-08 22:05 | 29.20553 | 48.11644 | 9757 ft | 304 kts | 126° |
| 2026-05-08 22:06 | 29.19383 | 48.13638 | 10490 ft | 307 kts | 126° |
| 2026-05-08 22:06 | 29.18187 | 48.15670 | 11216 ft | 310 kts | 126° |
| 2026-05-08 22:06 | 29.16977 | 48.17725 | 11966 ft | 312 kts | 126° |
| 2026-05-08 22:06 | 29.15753 | 48.19801 | 12700 ft | 316 kts | 126° |
| 2026-05-08 22:07 | 29.14504 | 48.21914 | 13201 ft | 329 kts | 126° |
| 2026-05-08 22:07 | 29.13178 | 48.24154 | 13393 ft | 349 kts | 126° |
| 2026-05-08 22:07 | 29.11776 | 48.26522 | 13579 ft | 369 kts | 125° |
| 2026-05-08 22:07 | 29.10303 | 48.29010 | 13847 ft | 384 kts | 125° |
| 2026-05-08 22:08 | 29.09310 | 48.30690 | 14232 ft | 387 kts | 125° |
| 2026-05-08 22:08 | 29.07795 | 48.33253 | 14859 ft | 390 kts | 126° |
| 2026-05-08 22:08 | 29.06269 | 48.35831 | 15451 ft | 394 kts | 126° |
| 2026-05-08 22:08 | 29.04725 | 48.38437 | 16048 ft | 397 kts | 126° |
| 2026-05-08 22:09 | 29.03169 | 48.41060 | 16632 ft | 401 kts | 126° |
| 2026-05-08 22:09 | 29.01597 | 48.43707 | 17211 ft | 404 kts | 127° |
| 2026-05-08 22:09 | 29.00013 | 48.46373 | 17778 ft | 408 kts | 126° |
| 2026-05-08 22:09 | 28.98414 | 48.49063 | 18337 ft | 411 kts | 127° |
| 2026-05-08 22:10 | 28.96805 | 48.51770 | 18828 ft | 413 kts | 127° |
| 2026-05-08 22:10 | 28.95183 | 48.54495 | 19324 ft | 416 kts | 127° |
| 2026-05-08 22:10 | 28.93554 | 48.57232 | 19806 ft | 419 kts | 128° |
| 2026-05-08 22:10 | 28.91907 | 48.59995 | 20312 ft | 421 kts | 128° |
| 2026-05-08 22:11 | 28.90254 | 48.62768 | 20800 ft | 423 kts | 129° |
| 2026-05-08 22:11 | 28.88592 | 48.65552 | 21278 ft | 426 kts | 129° |
| 2026-05-08 22:11 | 28.86923 | 48.68347 | 21815 ft | 427 kts | 129° |
| 2026-05-08 22:11 | 28.85248 | 48.71150 | 22310 ft | 428 kts | 130° |
| 2026-05-08 22:12 | 28.83600 | 48.73909 | 22963 ft | 426 kts | 130° |
| 2026-05-08 22:12 | 28.81922 | 48.76714 | 23407 ft | 429 kts | 130° |
| 2026-05-08 22:12 | 28.80251 | 48.79551 | 23802 ft | 434 kts | 128° |
| 2026-05-08 22:12 | 28.78753 | 48.82571 | 24170 ft | 439 kts | 125° |
| 2026-05-08 22:13 | 28.77268 | 48.85626 | 24550 ft | 442 kts | 126° |
| 2026-05-08 22:13 | 28.75772 | 48.88687 | 24984 ft | 444 kts | 126° |
| 2026-05-08 22:13 | 28.74262 | 48.91769 | 25391 ft | 447 kts | 126° |
| 2026-05-08 22:14 | 28.74169 | 48.91960 | 25412 ft | 447 kts | 126° |
| 2026-05-08 22:14 | 28.73360 | 48.93609 | 25648 ft | 449 kts | 126° |
| 2026-05-08 22:14 | 28.72292 | 48.95782 | 25926 ft | 451 kts | 126° |
| 2026-05-08 22:14 | 28.70744 | 48.98927 | 26264 ft | 457 kts | 126° |
| 2026-05-08 22:15 | 28.69183 | 49.02101 | 26747 ft | 460 kts | 127° |
| 2026-05-08 22:15 | 28.67615 | 49.05286 | 26919 ft | 463 kts | 127° |
| 2026-05-08 22:15 | 28.66058 | 49.08449 | 26924 ft | 462 kts | 127° |
| 2026-05-08 22:15 | 28.64484 | 49.11647 | 26923 ft | 462 kts | 127° |
| 2026-05-08 22:16 | 28.62909 | 49.14841 | 26920 ft | 462 kts | 127° |
| 2026-05-08 22:16 | 28.61336 | 49.18028 | 26918 ft | 462 kts | 127° |
| 2026-05-08 22:16 | 28.59695 | 49.21160 | 26917 ft | 456 kts | 133° |
| 2026-05-08 22:16 | 28.57657 | 49.23851 | 26921 ft | 445 kts | 144° |
| 2026-05-08 22:17 | 28.55260 | 49.26003 | 26918 ft | 434 kts | 155° |
| 2026-05-08 22:17 | 28.52639 | 49.27624 | 26918 ft | 428 kts | 159° |
| 2026-05-08 22:17 | 28.50099 | 49.29458 | 26918 ft | 437 kts | 151° |
| 2026-05-08 22:17 | 28.47709 | 49.31620 | 26931 ft | 440 kts | 148° |
| 2026-05-08 22:18 | 28.45393 | 49.33907 | 26919 ft | 441 kts | 147° |
| 2026-05-08 22:18 | 28.43097 | 49.36226 | 26926 ft | 441 kts | 146° |
| 2026-05-08 22:18 | 28.40802 | 49.38540 | 26916 ft | 442 kts | 146° |
| 2026-05-08 22:18 | 28.38495 | 49.40849 | 26920 ft | 442 kts | 147° |
| 2026-05-08 22:19 | 28.36181 | 49.43154 | 26923 ft | 442 kts | 147° |
| 2026-05-08 22:19 | 28.33897 | 49.45420 | 26912 ft | 442 kts | 147° |
| 2026-05-08 22:19 | 28.31579 | 49.47716 | 26912 ft | 441 kts | 147° |
| 2026-05-08 22:19 | 28.29266 | 49.50004 | 26920 ft | 441 kts | 147° |
| 2026-05-08 22:20 | 28.26952 | 49.52286 | 26920 ft | 441 kts | 147° |
| 2026-05-08 22:20 | 28.24630 | 49.54572 | 26906 ft | 442 kts | 147° |
| 2026-05-08 22:20 | 28.22304 | 49.56862 | 26914 ft | 442 kts | 147° |
| 2026-05-08 22:20 | 28.19900 | 49.59004 | 26915 ft | 439 kts | 150° |
| 2026-05-08 22:21 | 28.17465 | 49.61089 | 26917 ft | 439 kts | 150° |
| 2026-05-08 22:21 | 28.15030 | 49.63180 | 26910 ft | 439 kts | 150° |
| 2026-05-08 22:21 | 28.12598 | 49.65271 | 26914 ft | 439 kts | 150° |
| 2026-05-08 22:21 | 28.10166 | 49.67362 | 26910 ft | 439 kts | 150° |
| 2026-05-08 22:22 | 28.07739 | 49.69447 | 26903 ft | 437 kts | 150° |
| 2026-05-08 22:22 | 28.05314 | 49.71529 | 26910 ft | 437 kts | 150° |
| 2026-05-08 22:22 | 28.02870 | 49.73576 | 26909 ft | 436 kts | 152° |
| 2026-05-08 22:22 | 28.00376 | 49.75515 | 26907 ft | 435 kts | 153° |
| 2026-05-08 22:23 | 27.97859 | 49.77430 | 26913 ft | 436 kts | 153° |
| 2026-05-08 22:23 | 27.95348 | 49.79347 | 26906 ft | 436 kts | 153° |
| 2026-05-08 22:23 | 27.92836 | 49.81280 | 26907 ft | 436 kts | 153° |
| 2026-05-08 22:23 | 27.90358 | 49.83195 | 26895 ft | 435 kts | 152° |
| 2026-05-08 22:24 | 27.87865 | 49.85128 | 26908 ft | 435 kts | 152° |
| 2026-05-08 22:24 | 27.85373 | 49.87062 | 26907 ft | 435 kts | 152° |
| 2026-05-08 22:24 | 27.82876 | 49.88999 | 26905 ft | 435 kts | 152° |
| 2026-05-08 22:24 | 27.80387 | 49.90928 | 26902 ft | 435 kts | 152° |
| 2026-05-08 22:25 | 27.77890 | 49.92862 | 26908 ft | 435 kts | 152° |
| 2026-05-08 22:25 | 27.75396 | 49.94792 | 26907 ft | 435 kts | 152° |
| 2026-05-08 22:25 | 27.72902 | 49.96720 | 26895 ft | 434 kts | 152° |
| 2026-05-08 22:25 | 27.70408 | 49.98648 | 26907 ft | 436 kts | 153° |
| 2026-05-08 22:26 | 27.67900 | 50.00584 | 26909 ft | 436 kts | 153° |
| 2026-05-08 22:26 | 27.65388 | 50.02523 | 26908 ft | 436 kts | 153° |
| 2026-05-08 22:26 | 27.62917 | 50.04430 | 26908 ft | 436 kts | 153° |
| 2026-05-08 22:26 | 27.60414 | 50.06360 | 26906 ft | 436 kts | 153° |
| 2026-05-08 22:27 | 27.57912 | 50.08289 | 26906 ft | 436 kts | 153° |
| 2026-05-08 22:27 | 27.55402 | 50.10222 | 26904 ft | 436 kts | 153° |
| 2026-05-08 22:27 | 27.52890 | 50.12155 | 26903 ft | 438 kts | 153° |
| 2026-05-08 22:27 | 27.50370 | 50.14093 | 26894 ft | 438 kts | 153° |
| 2026-05-08 22:28 | 27.47843 | 50.16036 | 26898 ft | 438 kts | 153° |
| 2026-05-08 22:28 | 27.45324 | 50.17973 | 26895 ft | 438 kts | 153° |
| 2026-05-08 22:28 | 27.42849 | 50.19898 | 26889 ft | 439 kts | 152° |
| 2026-05-08 22:28 | 27.40363 | 50.21911 | 26898 ft | 441 kts | 151° |
| 2026-05-08 22:29 | 27.37880 | 50.23948 | 26896 ft | 441 kts | 151° |
| 2026-05-08 22:29 | 27.35398 | 50.25981 | 26895 ft | 441 kts | 151° |
| 2026-05-08 22:29 | 27.32916 | 50.28003 | 26897 ft | 441 kts | 152° |
| 2026-05-08 22:29 | 27.30427 | 50.30023 | 26898 ft | 441 kts | 152° |
| 2026-05-08 22:30 | 27.27942 | 50.32035 | 26894 ft | 441 kts | 152° |
| 2026-05-08 22:30 | 27.25452 | 50.34048 | 26893 ft | 441 kts | 152° |
| 2026-05-08 22:30 | 27.22962 | 50.36061 | 26894 ft | 441 kts | 152° |
| 2026-05-08 22:30 | 27.20473 | 50.38070 | 26893 ft | 441 kts | 152° |
| 2026-05-08 22:31 | 27.17984 | 50.40079 | 26889 ft | 441 kts | 152° |
| 2026-05-08 22:31 | 27.15495 | 50.42087 | 26884 ft | 441 kts | 152° |
| 2026-05-08 22:31 | 27.12997 | 50.44100 | 26892 ft | 442 kts | 152° |
| 2026-05-08 22:31 | 27.10502 | 50.46111 | 26893 ft | 441 kts | 152° |
| 2026-05-08 22:32 | 27.08005 | 50.48122 | 26891 ft | 441 kts | 152° |
| 2026-05-08 22:32 | 27.05510 | 50.50130 | 26894 ft | 441 kts | 152° |
| 2026-05-08 22:32 | 27.03020 | 50.52133 | 26891 ft | 441 kts | 152° |
| 2026-05-08 22:32 | 27.00522 | 50.54142 | 26891 ft | 441 kts | 152° |
| 2026-05-08 22:33 | 26.98026 | 50.56152 | 26888 ft | 443 kts | 150° |
| 2026-05-08 22:33 | 26.95619 | 50.58345 | 26889 ft | 448 kts | 147° |
| 2026-05-08 22:33 | 26.93242 | 50.60588 | 26753 ft | 444 kts | 147° |
| 2026-05-08 22:33 | 26.90887 | 50.62799 | 26209 ft | 441 kts | 147° |
| 2026-05-08 22:34 | 26.88537 | 50.64999 | 25631 ft | 438 kts | 147° |
| 2026-05-08 22:34 | 26.86204 | 50.67179 | 25002 ft | 435 kts | 146° |
| 2026-05-08 22:34 | 26.83889 | 50.69342 | 24404 ft | 432 kts | 146° |
| 2026-05-08 22:34 | 26.81586 | 50.71492 | 23797 ft | 429 kts | 146° |
| 2026-05-08 22:35 | 26.79296 | 50.73628 | 23131 ft | 427 kts | 145° |
| 2026-05-08 22:35 | 26.77022 | 50.75750 | 22531 ft | 422 kts | 145° |
| 2026-05-08 22:35 | 26.74809 | 50.77816 | 21909 ft | 418 kts | 145° |
| 2026-05-08 22:35 | 26.72585 | 50.79889 | 21297 ft | 414 kts | 144° |
| 2026-05-08 22:36 | 26.70387 | 50.81937 | 20960 ft | 408 kts | 144° |
| 2026-05-08 22:36 | 26.68211 | 50.83962 | 20885 ft | 410 kts | 144° |
| 2026-05-08 22:36 | 26.66002 | 50.86016 | 20879 ft | 412 kts | 144° |
| 2026-05-08 22:36 | 26.63797 | 50.88065 | 20864 ft | 412 kts | 144° |
| 2026-05-08 22:37 | 26.61591 | 50.90114 | 20878 ft | 413 kts | 144° |
| 2026-05-08 22:37 | 26.59385 | 50.92164 | 20875 ft | 413 kts | 144° |
| 2026-05-08 22:37 | 26.57172 | 50.94220 | 20875 ft | 413 kts | 144° |
| 2026-05-08 22:37 | 26.54969 | 50.96265 | 20875 ft | 413 kts | 144° |
| 2026-05-08 22:38 | 26.52758 | 50.98317 | 20872 ft | 413 kts | 144° |
| 2026-05-08 22:38 | 26.50552 | 51.00361 | 20872 ft | 412 kts | 144° |
| 2026-05-08 22:38 | 26.48340 | 51.02412 | 20872 ft | 413 kts | 144° |
| 2026-05-08 22:38 | 26.46132 | 51.04457 | 20871 ft | 413 kts | 144° |
| 2026-05-08 22:39 | 26.43923 | 51.06501 | 20868 ft | 413 kts | 144° |
| 2026-05-08 22:39 | 26.41708 | 51.08550 | 20865 ft | 413 kts | 144° |
| 2026-05-08 22:39 | 26.39493 | 51.10599 | 20869 ft | 413 kts | 144° |
| 2026-05-08 22:39 | 26.37285 | 51.12640 | 20868 ft | 413 kts | 144° |
| 2026-05-08 22:40 | 26.35071 | 51.14686 | 20872 ft | 413 kts | 144° |
| 2026-05-08 22:40 | 26.32887 | 51.16702 | 20869 ft | 413 kts | 144° |
| 2026-05-08 22:40 | 26.30672 | 51.18747 | 20867 ft | 413 kts | 144° |
| 2026-05-08 22:40 | 26.28456 | 51.20792 | 20866 ft | 413 kts | 144° |
| 2026-05-08 22:41 | 26.26238 | 51.22837 | 20868 ft | 413 kts | 144° |
| 2026-05-08 22:41 | 26.24019 | 51.24883 | 20871 ft | 414 kts | 144° |
| 2026-05-08 22:41 | 26.21801 | 51.26927 | 20871 ft | 414 kts | 144° |
| 2026-05-08 22:41 | 26.19588 | 51.28966 | 20870 ft | 414 kts | 144° |
| 2026-05-08 22:42 | 26.17368 | 51.31010 | 20866 ft | 414 kts | 144° |
| 2026-05-08 22:42 | 26.15155 | 51.33046 | 20865 ft | 414 kts | 144° |
| 2026-05-08 22:42 | 26.12933 | 51.35090 | 20872 ft | 413 kts | 144° |
| 2026-05-08 22:42 | 26.10721 | 51.37123 | 20865 ft | 413 kts | 144° |
| 2026-05-08 22:43 | 26.08350 | 51.38873 | 20858 ft | 408 kts | 157° |
| 2026-05-08 22:43 | 26.05687 | 51.39907 | 20864 ft | 404 kts | 171° |
| 2026-05-08 22:43 | 26.02905 | 51.40193 | 20865 ft | 399 kts | 183° |
| 2026-05-08 22:43 | 26.00130 | 51.40140 | 20869 ft | 400 kts | 183° |
| 2026-05-08 22:44 | 25.97349 | 51.40108 | 20862 ft | 399 kts | 182° |
| 2026-05-08 22:44 | 25.94590 | 51.40085 | 20813 ft | 392 kts | 182° |
| 2026-05-08 22:44 | 25.91938 | 51.40065 | 20698 ft | 381 kts | 182° |
| 2026-05-08 22:44 | 25.89313 | 51.40045 | 20275 ft | 376 kts | 182° |
| 2026-05-08 22:45 | 25.86693 | 51.40021 | 19678 ft | 376 kts | 182° |
| 2026-05-08 22:45 | 25.84080 | 51.39997 | 19140 ft | 375 kts | 182° |
| 2026-05-08 22:45 | 25.81476 | 51.39973 | 18923 ft | 375 kts | 182° |
| 2026-05-08 22:45 | 25.78862 | 51.39949 | 18858 ft | 375 kts | 182° |
| 2026-05-08 22:46 | 25.76245 | 51.39926 | 18853 ft | 376 kts | 182° |
| 2026-05-08 22:46 | 25.73621 | 51.39902 | 18852 ft | 376 kts | 182° |
| 2026-05-08 22:46 | 25.70998 | 51.39879 | 18852 ft | 377 kts | 182° |
| 2026-05-08 22:46 | 25.68377 | 51.39855 | 18849 ft | 376 kts | 182° |
| 2026-05-08 22:47 | 25.65760 | 51.39832 | 18850 ft | 376 kts | 182° |
| 2026-05-08 22:47 | 25.63163 | 51.39601 | 18849 ft | 374 kts | 195° |
| 2026-05-08 22:47 | 25.60757 | 51.38559 | 18850 ft | 371 kts | 212° |
| 2026-05-08 22:47 | 25.58754 | 51.36767 | 18850 ft | 371 kts | 229° |
| 2026-05-08 22:48 | 25.57194 | 51.34527 | 18852 ft | 372 kts | 233° |
| 2026-05-08 22:48 | 25.55646 | 51.32233 | 18858 ft | 371 kts | 233° |
| 2026-05-08 22:48 | 25.54092 | 51.29951 | 18855 ft | 370 kts | 233° |
| 2026-05-08 22:48 | 25.52538 | 51.27679 | 18827 ft | 369 kts | 233° |
| 2026-05-08 22:49 | 25.50997 | 51.25427 | 18650 ft | 363 kts | 233° |
| 2026-05-08 22:49 | 25.48082 | 51.21170 | 18303 ft | 329 kts | 233° |
| 2026-05-08 22:49 | 25.46719 | 51.19180 | 17883 ft | 321 kts | 233° |
| 2026-05-08 22:50 | 25.45371 | 51.17211 | 17268 ft | 319 kts | 233° |
| 2026-05-08 22:50 | 25.44038 | 51.15264 | 16686 ft | 316 kts | 233° |
| 2026-05-08 22:50 | 25.42718 | 51.13337 | 16126 ft | 313 kts | 233° |
| 2026-05-08 22:50 | 25.41406 | 51.11422 | 15573 ft | 310 kts | 233° |
| 2026-05-08 22:51 | 25.40104 | 51.09528 | 14998 ft | 308 kts | 232° |
| 2026-05-08 22:51 | 25.38528 | 51.07956 | 14395 ft | 307 kts | 209° |
| 2026-05-08 22:51 | 25.36514 | 51.07204 | 13815 ft | 308 kts | 187° |
| 2026-05-08 22:51 | 25.34381 | 51.07169 | 13167 ft | 307 kts | 181° |
| 2026-05-08 22:52 | 25.32276 | 51.07170 | 12585 ft | 305 kts | 182° |
| 2026-05-08 22:52 | 25.30153 | 51.07460 | 11895 ft | 307 kts | 161° |
| 2026-05-08 22:52 | 25.28328 | 51.08636 | 11280 ft | 310 kts | 137° |
| 2026-05-08 22:52 | 25.27083 | 51.10559 | 10797 ft | 310 kts | 113° |
| 2026-05-08 22:53 | 25.26652 | 51.12875 | 10405 ft | 309 kts | 90° |
| 2026-05-08 22:53 | 25.26726 | 51.15252 | 10036 ft | 309 kts | 86° |
| 2026-05-08 22:53 | 25.26840 | 51.17609 | 9902 ft | 305 kts | 86° |
| 2026-05-08 22:53 | 25.26928 | 51.19955 | 9873 ft | 306 kts | 87° |
| 2026-05-08 22:54 | 25.26984 | 51.22311 | 9873 ft | 308 kts | 88° |
| 2026-05-08 22:54 | 25.27010 | 51.23874 | 9872 ft | 307 kts | 88° |
| 2026-05-08 22:54 | 25.26880 | 51.26223 | 9874 ft | 307 kts | 99° |
| 2026-05-08 22:54 | 25.26434 | 51.28383 | 9875 ft | 307 kts | 104° |
| 2026-05-08 22:55 | 25.25922 | 51.30682 | 9854 ft | 307 kts | 103° |
| 2026-05-08 22:55 | 25.25429 | 51.32973 | 9667 ft | 307 kts | 103° |
| 2026-05-08 22:55 | 25.24944 | 51.35254 | 9417 ft | 302 kts | 102° |
| 2026-05-08 22:55 | 25.24305 | 51.38266 | 8794 ft | 305 kts | 102° |
| 2026-05-08 22:56 | 25.23978 | 51.39805 | 8593 ft | 302 kts | 103° |
| 2026-05-08 22:56 | 25.23505 | 51.42020 | 8485 ft | 290 kts | 103° |
| 2026-05-08 22:56 | 25.23044 | 51.44179 | 8099 ft | 290 kts | 103° |
| 2026-05-08 22:56 | 25.22563 | 51.46375 | 7569 ft | 296 kts | 107° |
| 2026-05-08 22:57 | 25.21578 | 51.48375 | 7093 ft | 299 kts | 133° |
| 2026-05-08 22:57 | 25.19966 | 51.49696 | 6815 ft | 290 kts | 155° |
| 2026-05-08 22:57 | 25.18064 | 51.50536 | 6152 ft | 292 kts | 163° |
| 2026-05-08 22:57 | 25.16165 | 51.51218 | 5630 ft | 289 kts | 163° |
| 2026-05-08 22:58 | 25.14281 | 51.51922 | 5325 ft | 279 kts | 161° |
| 2026-05-08 22:58 | 25.12512 | 51.52633 | 5180 ft | 262 kts | 160° |
| 2026-05-08 22:58 | 25.10848 | 51.53338 | 4911 ft | 253 kts | 159° |
| 2026-05-08 22:58 | 25.09205 | 51.54050 | 4451 ft | 254 kts | 158° |
| 2026-05-08 22:59 | 25.07550 | 51.54777 | 3890 ft | 259 kts | 157° |
| 2026-05-08 22:59 | 25.05863 | 51.55524 | 3389 ft | 264 kts | 158° |
| 2026-05-08 22:59 | 25.04144 | 51.56284 | 3083 ft | 266 kts | 158° |
| 2026-05-08 22:59 | 25.02416 | 51.57045 | 2881 ft | 266 kts | 157° |
| 2026-05-08 23:00 | 25.00741 | 51.57832 | 2832 ft | 263 kts | 147° |
| 2026-05-08 23:00 | 24.99433 | 51.59195 | 2848 ft | 258 kts | 116° |
| 2026-05-08 23:00 | 24.98889 | 51.60996 | 2839 ft | 238 kts | 85° |
| 2026-05-08 23:00 | 24.99181 | 51.62683 | 2747 ft | 216 kts | 58° |
| 2026-05-08 23:01 | 24.99890 | 51.64085 | 2633 ft | 206 kts | 51° |
| 2026-05-08 23:01 | 25.00637 | 51.65440 | 2392 ft | 207 kts | 52° |
| 2026-05-08 23:01 | 25.01320 | 51.66844 | 2344 ft | 210 kts | 56° |
| 2026-05-08 23:01 | 25.01942 | 51.68308 | 2349 ft | 211 kts | 59° |
| 2026-05-08 23:02 | 25.02514 | 51.69786 | 2348 ft | 209 kts | 60° |
| 2026-05-08 23:02 | 25.03284 | 51.71058 | 2350 ft | 193 kts | 32° |
| 2026-05-08 23:02 | 25.04465 | 51.71618 | 2351 ft | 183 kts | 4° |
| 2026-05-08 23:02 | 25.05714 | 51.71432 | 2353 ft | 183 kts | 339° |
| 2026-05-08 23:03 | 25.06889 | 51.70871 | 2352 ft | 184 kts | 339° |
| 2026-05-08 23:03 | 25.08054 | 51.70350 | 2151 ft | 177 kts | 339° |
| 2026-05-08 23:03 | 25.09205 | 51.69851 | 1896 ft | 179 kts | 340° |
| 2026-05-08 23:03 | 25.10351 | 51.69355 | 1845 ft | 171 kts | 339° |
| 2026-05-08 23:04 | 25.11426 | 51.68886 | 1856 ft | 162 kts | 339° |
| 2026-05-08 23:04 | 25.12449 | 51.68437 | 1852 ft | 160 kts | 339° |
| 2026-05-08 23:04 | 25.13483 | 51.67983 | 1853 ft | 160 kts | 339° |
| 2026-05-08 23:04 | 25.14520 | 51.67527 | 1854 ft | 161 kts | 339° |
| 2026-05-08 23:05 | 25.15548 | 51.67074 | 1847 ft | 156 kts | 340° |
| 2026-05-08 23:05 | 25.16545 | 51.66631 | 1845 ft | 155 kts | 336° |
| 2026-05-08 23:05 | 25.17488 | 51.66154 | 1657 ft | 136 kts | 336° |
| 2026-05-08 23:05 | 25.18331 | 51.65730 | 1449 ft | 133 kts | 341° |
| 2026-05-08 23:06 | 25.19222 | 51.65363 | 1273 ft | 141 kts | 341° |
| 2026-05-08 23:06 | 25.20170 | 51.65043 | 1196 ft | 143 kts | 337° |
| 2026-05-08 23:06 | 25.21139 | 51.64701 | 971 ft | 148 kts | 335° |
| 2026-05-08 23:06 | 25.22068 | 51.64234 | 799 ft | 142 kts | 335° |
| 2026-05-08 23:07 | 25.22908 | 51.63764 | 675 ft | 130 kts | 339° |
| 2026-05-08 23:07 | 25.23765 | 51.63410 | 388 ft | 137 kts | 342° |
| 2026-05-08 23:07 | 25.24675 | 51.63112 | 252 ft | 142 kts | 326° |
| 2026-05-08 23:07 | 25.25594 | 51.62644 | 94 ft | 145 kts | 336° |
| 2026-05-08 23:08 | 25.26449 | 51.62267 | 32 ft | 107 kts | 340° |
| 2026-05-08 23:08 | 25.26861 | 51.62094 | 29 ft | 20 kts | 334° |
| 2026-05-08 23:08 | 25.26988 | 51.61964 | 29 ft | 25 kts | 307° |
| 2026-05-08 23:08 | 25.27007 | 51.61933 | 30 ft | 0 kts | 291° |
| 2026-05-08 23:09 | 25.27009 | 51.61927 | 30 ft | 1 kts | 298° |
| 2026-05-08 23:09 | 25.27018 | 51.61913 | 30 ft | 3 kts | 307° |
| 2026-05-08 23:09 | 25.27035 | 51.61890 | 31 ft | 4 kts | 311° |
| 2026-05-08 23:10 | 25.27058 | 51.61862 | 32 ft | 6 kts | 311° |
| 2026-05-08 23:10 | 25.27089 | 51.61826 | 33 ft | 7 kts | 313° |
| 2026-05-08 23:10 | 25.27109 | 51.61776 | 33 ft | 8 kts | 264° |
| 2026-05-08 23:10 | 25.27087 | 51.61700 | 34 ft | 13 kts | 248° |
| 2026-05-08 23:11 | 25.27047 | 51.61593 | 35 ft | 17 kts | 248° |
| 2026-05-08 23:11 | 25.26999 | 51.61466 | 35 ft | 17 kts | 227° |
| 2026-05-08 23:11 | 25.26885 | 51.61396 | 35 ft | 21 kts | 201° |
| 2026-05-08 23:11 | 25.26742 | 51.61331 | 35 ft | 22 kts | 198° |
| 2026-05-08 23:12 | 25.26682 | 51.61330 | 35 ft | 3 kts | 167° |
| 2026-05-08 23:12 | 25.26645 | 51.61338 | 35 ft | 4 kts | 190° |
| 2026-05-08 23:12 | 25.26615 | 51.61304 | 35 ft | 8 kts | 245° |
| 2026-05-08 23:12 | 25.26608 | 51.61285 | 35 ft | 0 kts | 246° |
| 2026-05-08 23:14 | 25.26608 | 51.61284 | 35 ft | 1 kts | 246° |
| 2026-05-08 23:14 | 25.26598 | 51.61260 | 35 ft | 0 kts | 247° |
| 2026-05-08 23:14 | 25.26597 | 51.61257 | 35 ft | 1 kts | 246° |
| 2026-05-08 23:14 | 25.26594 | 51.61249 | 35 ft | 4 kts | 246° |
| 2026-05-08 23:15 | 25.26593 | 51.61248 | 35 ft | 0 kts | 246° |
| 2026-05-08 23:15 | 25.26593 | 51.61247 | 35 ft | 0 kts | 246° |
| 2026-05-08 23:16 | 25.26592 | 51.61245 | 35 ft | 0 kts | 247° |
| 2026-05-08 23:16 | 25.26595 | 51.61252 | 35 ft | 1 kts | 250° |
| 2026-05-08 23:17 | 25.26598 | 51.61262 | 35 ft | 1 kts | 252° |
| 2026-05-08 23:17 | 25.26601 | 51.61271 | 35 ft | 0 kts | 250° |
| 2026-05-08 23:17 | 25.26600 | 51.61268 | 35 ft | 1 kts | 250° |
| 2026-05-08 23:17 | 25.26598 | 51.61262 | 35 ft | 0 kts | 251° |
| 2026-05-08 23:18 | 25.26596 | 51.61258 | 35 ft | 1 kts | 249° |
| 2026-05-08 23:18 | 25.26594 | 51.61253 | 35 ft | 0 kts | 249° |
| 2026-05-08 23:18 | 25.26595 | 51.61256 | 35 ft | 1 kts | 250° |
| 2026-05-08 23:18 | 25.26596 | 51.61258 | 35 ft | 0 kts | 251° |